Terminal Aerodrome Forecast
Issued by NWS Cleveland, OH

Home | Current Version | Previous Version | Text Only | Print | Product List | Glossary On
Versions: 1 2 3 4 5 6 7 8 9 10 11 12 13 14
738
FTUS41 KCLE 221140
TAFMFD
TAF
KMFD 221140Z 2212/2312 20007KT 6SM BR OVC035
      TEMPO 2212/2216 3SM BR BKN025
     FM221600 20010KT P6SM BKN018
     FM222000 20007KT P6SM BKN025
     FM230300 20010KT P6SM OVC015
     FM230600 20010KT 4SM BR OVC008=

USA.gov is the U.S. government's official web portal to all federal, state and local government web resources and services.